sensor_id;sensor_type;location;lat;lon;timestamp;P1;durP1;ratioP1;P2;durP2;ratioP2
70365;SDS011;57787;48.216;12.396;2023-07-29T00:00:49;3.65;;;1.80;;
70365;SDS011;57787;48.216;12.396;2023-07-29T00:03:16;2.60;;;1.60;;
70365;SDS011;57787;48.216;12.396;2023-07-29T00:05:44;2.85;;;1.50;;
70365;SDS011;57787;48.216;12.396;2023-07-29T00:10:39;4.05;;;1.90;;
70365;SDS011;57787;48.216;12.396;2023-07-29T00:13:06;2.53;;;1.42;;
70365;SDS011;57787;48.216;12.396;2023-07-29T00:15:33;2.03;;;1.70;;
70365;SDS011;57787;48.216;12.396;2023-07-29T00:18:02;4.00;;;2.03;;
70365;SDS011;57787;48.216;12.396;2023-07-29T00:20:29;5.15;;;1.50;;
70365;SDS011;57787;48.216;12.396;2023-07-29T00:22:56;3.42;;;1.67;;
70365;SDS011;57787;48.216;12.396;2023-07-29T00:25:27;3.42;;;1.77;;
70365;SDS011;57787;48.216;12.396;2023-07-29T00:27:58;5.00;;;1.70;;
70365;SDS011;57787;48.216;12.396;2023-07-29T00:30:25;6.22;;;1.88;;
70365;SDS011;57787;48.216;12.396;2023-07-29T00:32:54;2.30;;;1.60;;
70365;SDS011;57787;48.216;12.396;2023-07-29T00:35:20;2.28;;;1.70;;
70365;SDS011;57787;48.216;12.396;2023-07-29T00:37:47;3.95;;;1.65;;
70365;SDS011;57787;48.216;12.396;2023-07-29T00:40:15;2.78;;;1.67;;
70365;SDS011;57787;48.216;12.396;2023-07-29T00:42:47;2.30;;;1.83;;
70365;SDS011;57787;48.216;12.396;2023-07-29T00:47:42;8.55;;;1.95;;
70365;SDS011;57787;48.216;12.396;2023-07-29T00:50:11;2.60;;;1.77;;
70365;SDS011;57787;48.216;12.396;2023-07-29T00:52:38;5.55;;;1.70;;
70365;SDS011;57787;48.216;12.396;2023-07-29T00:55:08;2.33;;;1.58;;
70365;SDS011;57787;48.216;12.396;2023-07-29T00:57:36;4.95;;;2.15;;
70365;SDS011;57787;48.216;12.396;2023-07-29T01:02:31;5.88;;;2.00;;
70365;SDS011;57787;48.216;12.396;2023-07-29T01:04:59;7.00;;;2.20;;
70365;SDS011;57787;48.216;12.396;2023-07-29T01:12:44;7.05;;;2.15;;
70365;SDS011;57787;48.216;12.396;2023-07-29T01:18:24;2.70;;;1.70;;
70365;SDS011;57787;48.216;12.396;2023-07-29T01:20:59;9.02;;;2.30;;
70365;SDS011;57787;48.216;12.396;2023-07-29T01:23:33;2.92;;;1.80;;
70365;SDS011;57787;48.216;12.396;2023-07-29T01:26:08;3.78;;;1.95;;
70365;SDS011;57787;48.216;12.396;2023-07-29T01:28:35;4.13;;;2.22;;
70365;SDS011;57787;48.216;12.396;2023-07-29T01:33:40;2.75;;;2.20;;
70365;SDS011;57787;48.216;12.396;2023-07-29T01:36:18;4.55;;;2.03;;
70365;SDS011;57787;48.216;12.396;2023-07-29T01:38:49;3.42;;;2.25;;
70365;SDS011;57787;48.216;12.396;2023-07-29T01:41:18;2.45;;;1.98;;
70365;SDS011;57787;48.216;12.396;2023-07-29T01:43:46;4.10;;;2.10;;
70365;SDS011;57787;48.216;12.396;2023-07-29T01:46:14;1.88;;;1.67;;
70365;SDS011;57787;48.216;12.396;2023-07-29T01:48:42;2.00;;;1.80;;
70365;SDS011;57787;48.216;12.396;2023-07-29T01:51:11;2.30;;;1.60;;
70365;SDS011;57787;48.216;12.396;2023-07-29T01:53:38;6.38;;;2.00;;
70365;SDS011;57787;48.216;12.396;2023-07-29T01:56:05;4.28;;;1.90;;
70365;SDS011;57787;48.216;12.396;2023-07-29T01:58:32;2.33;;;1.70;;
70365;SDS011;57787;48.216;12.396;2023-07-29T02:01:00;3.03;;;1.85;;
70365;SDS011;57787;48.216;12.396;2023-07-29T02:03:27;6.13;;;1.92;;
70365;SDS011;57787;48.216;12.396;2023-07-29T02:08:21;5.25;;;1.77;;
70365;SDS011;57787;48.216;12.396;2023-07-29T02:10:48;4.72;;;2.55;;
70365;SDS011;57787;48.216;12.396;2023-07-29T02:13:15;3.00;;;1.67;;
70365;SDS011;57787;48.216;12.396;2023-07-29T02:15:42;2.70;;;1.67;;
70365;SDS011;57787;48.216;12.396;2023-07-29T02:18:09;3.40;;;2.20;;
70365;SDS011;57787;48.216;12.396;2023-07-29T02:20:39;6.03;;;2.15;;
70365;SDS011;57787;48.216;12.396;2023-07-29T02:25:35;4.10;;;1.90;;
70365;SDS011;57787;48.216;12.396;2023-07-29T02:28:02;4.72;;;2.65;;
70365;SDS011;57787;48.216;12.396;2023-07-29T02:30:30;6.43;;;1.90;;
70365;SDS011;57787;48.216;12.396;2023-07-29T02:32:57;4.25;;;2.00;;
70365;SDS011;57787;48.216;12.396;2023-07-29T02:35:26;4.38;;;2.03;;
70365;SDS011;57787;48.216;12.396;2023-07-29T02:37:53;6.90;;;2.05;;
70365;SDS011;57787;48.216;12.396;2023-07-29T02:40:21;3.83;;;2.15;;
70365;SDS011;57787;48.216;12.396;2023-07-29T02:45:19;2.75;;;2.20;;
70365;SDS011;57787;48.216;12.396;2023-07-29T02:47:47;3.33;;;2.20;;
70365;SDS011;57787;48.216;12.396;2023-07-29T02:50:14;2.92;;;2.25;;
70365;SDS011;57787;48.216;12.396;2023-07-29T02:52:42;3.22;;;2.20;;
70365;SDS011;57787;48.216;12.396;2023-07-29T02:55:09;7.38;;;2.25;;
70365;SDS011;57787;48.216;12.396;2023-07-29T02:57:39;4.60;;;2.65;;
70365;SDS011;57787;48.216;12.396;2023-07-29T03:00:06;6.63;;;2.63;;
70365;SDS011;57787;48.216;12.396;2023-07-29T03:02:33;3.05;;;2.20;;
70365;SDS011;57787;48.216;12.396;2023-07-29T03:05:01;6.13;;;2.58;;
70365;SDS011;57787;48.216;12.396;2023-07-29T03:07:30;4.03;;;2.42;;
70365;SDS011;57787;48.216;12.396;2023-07-29T03:09:57;10.80;;;3.10;;
70365;SDS011;57787;48.216;12.396;2023-07-29T03:12:25;5.22;;;3.17;;
70365;SDS011;57787;48.216;12.396;2023-07-29T03:14:55;5.22;;;2.80;;
70365;SDS011;57787;48.216;12.396;2023-07-29T03:17:22;4.95;;;2.70;;
70365;SDS011;57787;48.216;12.396;2023-07-29T03:19:49;3.63;;;2.67;;
70365;SDS011;57787;48.216;12.396;2023-07-29T03:22:16;4.97;;;2.95;;
70365;SDS011;57787;48.216;12.396;2023-07-29T03:24:44;4.90;;;2.58;;
70365;SDS011;57787;48.216;12.396;2023-07-29T03:27:11;6.85;;;3.05;;
70365;SDS011;57787;48.216;12.396;2023-07-29T03:29:44;5.05;;;2.70;;
70365;SDS011;57787;48.216;12.396;2023-07-29T03:32:11;6.15;;;3.28;;
70365;SDS011;57787;48.216;12.396;2023-07-29T03:34:39;4.47;;;2.90;;
70365;SDS011;57787;48.216;12.396;2023-07-29T03:37:08;7.43;;;3.30;;
70365;SDS011;57787;48.216;12.396;2023-07-29T03:39:35;5.97;;;2.83;;
70365;SDS011;57787;48.216;12.396;2023-07-29T03:42:02;4.88;;;2.75;;
70365;SDS011;57787;48.216;12.396;2023-07-29T03:44:29;4.68;;;2.88;;
70365;SDS011;57787;48.216;12.396;2023-07-29T03:47:00;6.43;;;2.70;;
70365;SDS011;57787;48.216;12.396;2023-07-29T03:49:26;3.97;;;2.70;;
70365;SDS011;57787;48.216;12.396;2023-07-29T03:51:53;4.22;;;2.60;;
70365;SDS011;57787;48.216;12.396;2023-07-29T03:54:21;9.68;;;3.10;;
70365;SDS011;57787;48.216;12.396;2023-07-29T03:56:48;6.28;;;2.75;;
70365;SDS011;57787;48.216;12.396;2023-07-29T03:59:16;3.95;;;2.45;;
70365;SDS011;57787;48.216;12.396;2023-07-29T04:01:44;4.15;;;2.38;;
70365;SDS011;57787;48.216;12.396;2023-07-29T04:04:12;6.30;;;2.80;;
70365;SDS011;57787;48.216;12.396;2023-07-29T04:09:07;6.72;;;2.40;;
70365;SDS011;57787;48.216;12.396;2023-07-29T04:11:35;5.97;;;2.28;;
70365;SDS011;57787;48.216;12.396;2023-07-29T04:14:02;3.60;;;2.22;;
70365;SDS011;57787;48.216;12.396;2023-07-29T04:16:32;4.38;;;2.38;;
70365;SDS011;57787;48.216;12.396;2023-07-29T04:18:59;7.00;;;2.80;;
70365;SDS011;57787;48.216;12.396;2023-07-29T04:21:25;4.28;;;2.97;;
70365;SDS011;57787;48.216;12.396;2023-07-29T04:23:56;4.88;;;2.38;;
70365;SDS011;57787;48.216;12.396;2023-07-29T04:26:24;5.60;;;2.53;;
70365;SDS011;57787;48.216;12.396;2023-07-29T04:28:51;4.22;;;2.35;;
70365;SDS011;57787;48.216;12.396;2023-07-29T04:33:48;9.05;;;2.40;;
70365;SDS011;57787;48.216;12.396;2023-07-29T04:36:16;4.07;;;2.30;;
70365;SDS011;57787;48.216;12.396;2023-07-29T04:38:43;3.60;;;2.22;;
70365;SDS011;57787;48.216;12.396;2023-07-29T04:41:12;6.13;;;2.30;;
70365;SDS011;57787;48.216;12.396;2023-07-29T04:43:39;2.38;;;2.00;;
70365;SDS011;57787;48.216;12.396;2023-07-29T04:46:08;3.20;;;2.10;;
70365;SDS011;57787;48.216;12.396;2023-07-29T04:48:35;2.53;;;1.77;;
70365;SDS011;57787;48.216;12.396;2023-07-29T04:51:03;2.83;;;2.15;;
70365;SDS011;57787;48.216;12.396;2023-07-29T04:53:31;4.00;;;2.35;;
70365;SDS011;57787;48.216;12.396;2023-07-29T04:55:58;4.75;;;1.80;;
70365;SDS011;57787;48.216;12.396;2023-07-29T04:58:25;2.95;;;1.92;;
70365;SDS011;57787;48.216;12.396;2023-07-29T05:00:55;5.47;;;2.10;;
70365;SDS011;57787;48.216;12.396;2023-07-29T05:03:22;2.58;;;1.95;;
70365;SDS011;57787;48.216;12.396;2023-07-29T05:05:49;1.98;;;1.80;;
70365;SDS011;57787;48.216;12.396;2023-07-29T05:08:17;1.83;;;1.52;;
70365;SDS011;57787;48.216;12.396;2023-07-29T05:10:48;2.35;;;1.75;;
70365;SDS011;57787;48.216;12.396;2023-07-29T05:13:18;2.75;;;1.80;;
70365;SDS011;57787;48.216;12.396;2023-07-29T05:15:49;3.10;;;1.95;;
70365;SDS011;57787;48.216;12.396;2023-07-29T05:18:17;4.57;;;1.90;;
70365;SDS011;57787;48.216;12.396;2023-07-29T05:20:47;2.90;;;2.00;;
70365;SDS011;57787;48.216;12.396;2023-07-29T05:23:14;2.05;;;1.85;;
70365;SDS011;57787;48.216;12.396;2023-07-29T05:25:41;2.20;;;1.88;;
70365;SDS011;57787;48.216;12.396;2023-07-29T05:28:08;2.97;;;2.13;;
70365;SDS011;57787;48.216;12.396;2023-07-29T05:30:37;3.38;;;2.00;;
70365;SDS011;57787;48.216;12.396;2023-07-29T05:33:06;2.97;;;1.92;;
70365;SDS011;57787;48.216;12.396;2023-07-29T05:35:35;2.75;;;1.88;;
70365;SDS011;57787;48.216;12.396;2023-07-29T05:38:05;3.10;;;1.80;;
70365;SDS011;57787;48.216;12.396;2023-07-29T05:40:34;7.82;;;2.63;;
70365;SDS011;57787;48.216;12.396;2023-07-29T05:43:01;3.85;;;1.70;;
70365;SDS011;57787;48.216;12.396;2023-07-29T05:45:29;2.75;;;1.75;;
70365;SDS011;57787;48.216;12.396;2023-07-29T05:47:57;2.85;;;1.95;;
70365;SDS011;57787;48.216;12.396;2023-07-29T05:50:24;5.28;;;1.52;;
70365;SDS011;57787;48.216;12.396;2023-07-29T05:52:51;2.33;;;1.40;;
70365;SDS011;57787;48.216;12.396;2023-07-29T05:55:19;1.63;;;1.13;;
70365;SDS011;57787;48.216;12.396;2023-07-29T05:57:47;3.88;;;1.92;;
70365;SDS011;57787;48.216;12.396;2023-07-29T06:00:14;3.13;;;1.77;;
